La Espada — WDI7035 — position and weather

sailwx.info

Track history (hours):
 
Tides and Currents Weather Stations Pressure Air Temp Water Temp Dewpoint Dewpoint Depression Visibility Wind Speed Wind Dir Waves Ship Positions

La Espada

Owner: Harbor Breeze Cruises, Inc., Rancho Palos Verdes, CA. More information available from US FCC via Universal Licensing System and Coast Guard Vessel Documentation Center.

Last reported at 2017-Sep-20 00:38 UTC. Time now 2017-Sep-20 18:30 UTC.
Position N 33°46' W 118°12'.

Length 25 m.

MMSI: 367724740.

Date/timePositionNaut miles runAvg speedWind from/ knotsBaromVisibWave heightAir tempDewpointWater temp
2017-Sep-20 00:38N 33°46' W 118°12'0 0.0
2017-Sep-20 00:30N 33°46' W 118°12'0 0.0
2017-Sep-20 00:00N 33°46' W 118°12'0 0.0
2017-Sep-19 23:30N 33°46' W 118°12'2 4.4
2017-Sep-19 23:00N 33°44' W 118°11'4 8.0
2017-Sep-19 22:27N 33°45' W 118°17'2 3.4
2017-Sep-19 22:00N 33°46' W 118°16'3 5.7
2017-Sep-19 21:30N 33°43' W 118°16'3 5.8
2017-Sep-19 20:59N 33°46' W 118°16'0 0.0
2017-Sep-19 20:29N 33°46' W 118°16'0 0.8
2017-Sep-19 20:00N 33°46' W 118°16'1 3.0
2017-Sep-19 19:30N 33°44' W 118°17'1 2.9
2017-Sep-19 19:00N 33°46' W 118°16'1 3.0
2017-Sep-19 18:30N 33°44' W 118°17'0 0.0
2017-Sep-19 17:59N 33°44' W 118°17'0 0.0
2017-Sep-19 17:28N 33°44' W 118°17'3 6.0
2017-Sep-19 17:00N 33°43' W 118°14'3 6.3
2017-Sep-19 16:30N 33°46' W 118°12'0 0.0
2017-Sep-19 01:47N 33°46' W 118°12'0 0.0
2017-Sep-19 01:31N 33°46' W 118°12'0 0.0
2017-Sep-19 01:00N 33°46' W 118°12'0 0.0
2017-Sep-19 00:30N 33°46' W 118°12'0 0.0
2017-Sep-19 00:00N 33°46' W 118°12'1 1.4
2017-Sep-18 23:30N 33°45' W 118°11'4 8.9
2017-Sep-18 23:00N 33°43' W 118°16'2 4.7
2017-Sep-18 22:30N 33°45' W 118°16'2 3.9
2017-Sep-18 22:00N 33°46' W 118°14'2 4.1
2017-Sep-18 21:29N 33°44' W 118°13'1 3.1
2017-Sep-18 21:00N 33°46' W 118°12'3 5.7
2017-Sep-18 20:30N 33°43' W 118°13'3 5.5
2017-Sep-18 20:00N 33°44' W 118°17'0 0.0
2017-Sep-18 19:30N 33°44' W 118°17'4 8.4
2017-Sep-18 19:00N 33°44' W 118°11'2 3.9
2017-Sep-18 18:30N 33°46' W 118°12'0 0.0
2017-Sep-18 01:48N 33°46' W 118°12'1 4.4
2017-Sep-18 01:30N 33°45' W 118°11'713.5
2017-Sep-18 00:59N 33°42' W 118°19'714.3
2017-Sep-18 00:30N 33°45' W 118°26'916.4
2017-Sep-17 23:59N 33°39' W 118°18'4 8.2
2017-Sep-17 23:30N 33°38' W 118°14'714.1
2017-Sep-17 23:00N 33°44' W 118°11'2 2.7
2017-Sep-17 22:25N 33°46' W 118°12'0 1.1
2017-Sep-17 22:00N 33°45' W 118°11'917.1
2017-Sep-17 21:30N 33°37' W 118°09'713.9
2017-Sep-17 20:58N 33°30' W 118°04'3 6.2
2017-Sep-17 20:30N 33°33' W 118°06'5 8.7
2017-Sep-17 19:57N 33°36' W 118°10'817.4
2017-Sep-17 19:30N 33°44' W 118°11'2 3.8
2017-Sep-17 18:59N 33°46' W 118°12'0 0.0
2017-Sep-17 18:30N 33°46' W 118°12'4 7.9
2017-Sep-17 18:00N 33°42' W 118°11'8 3.1
2017-Sep-17 15:34N 33°35' W 118°16'618.2
2017-Sep-17 15:15N 33°40' W 118°13'518.1
2017-Sep-17 14:59N 33°45' W 118°11'1 0.1
2017-Sep-17 02:59N 33°46' W 118°12'0 0.0
2017-Sep-17 02:30N 33°46' W 118°12'0 0.0
2017-Sep-17 02:00N 33°46' W 118°12'3 5.8
2017-Sep-17 01:30N 33°43' W 118°11'1118.2
2017-Sep-17 00:54N 33°32' W 118°09'9 8.6
2017-Sep-16 23:52N 33°37' W 118°18'2 6.0
2017-Sep-16 23:30N 33°40' W 118°18'815.8
2017-Sep-16 23:00N 33°44' W 118°11'2 3.4
2017-Sep-16 22:30N 33°46' W 118°12'0 0.6
2017-Sep-16 22:01N 33°45' W 118°12'713.3
2017-Sep-16 21:30N 33°41' W 118°18'4 3.7
2017-Sep-16 20:30N 33°42' W 118°22'610.9
2017-Sep-16 19:55N 33°38' W 118°16'818.1
2017-Sep-16 19:31N 33°44' W 118°11'2 3.2
2017-Sep-16 19:00N 33°46' W 118°12'0 0.3
2017-Sep-16 18:30N 33°46' W 118°12'610.6
2017-Sep-16 17:58N 33°40' W 118°10'0 0.5
2017-Sep-16 17:30N 33°40' W 118°10'610.4
2017-Sep-16 16:59N 33°46' W 118°12'0 0.4
2017-Sep-16 16:30N 33°46' W 118°12'0 0.0
2017-Sep-15 22:49N 33°46' W 118°12'0 0.0
2017-Sep-15 22:30N 33°46' W 118°12'0 0.0
2017-Sep-15 22:00N 33°46' W 118°12'0 0.0
2017-Sep-15 21:30N 33°46' W 118°12'0 0.0
2017-Sep-15 21:00N 33°46' W 118°12'0 0.0
2017-Sep-15 20:30N 33°46' W 118°12'0 0.0
2017-Sep-15 20:00N 33°46' W 118°12'5 9.2
2017-Sep-15 19:30N 33°41' W 118°11'5 1.4
2017-Sep-15 15:40N 33°37' W 118°15'317.8
2017-Sep-15 15:30N 33°39' W 118°13'612.6
2017-Sep-15 14:59N 33°46' W 118°12'0 0.0
2017-Sep-15 14:30N 33°46' W 118°12'0 0.0
2017-Sep-15 14:01N 33°46' W 118°12'0 0.0
2017-Sep-15 02:46N 33°46' W 118°12'0 0.6
2017-Sep-15 02:29N 33°46' W 118°12'1 2.9
2017-Sep-15 01:59N 33°46' W 118°13'2 3.2
2017-Sep-15 01:30N 33°44' W 118°13'1 3.0
2017-Sep-15 01:00N 33°46' W 118°12'0 0.0
2017-Sep-15 00:30N 33°46' W 118°12'0 0.0
2017-Sep-15 00:00N 33°46' W 118°12'0 0.0
2017-Sep-14 23:30N 33°46' W 118°12'2 3.9
2017-Sep-14 23:00N 33°44' W 118°11'5 9.0
2017-Sep-14 22:30N 33°44' W 118°17'0 0.9
2017-Sep-14 22:00N 33°45' W 118°17'1 1.7
2017-Sep-14 21:29N 33°44' W 118°16'1 1.5
2017-Sep-14 21:00N 33°44' W 118°17'0 0.1
2017-Sep-14 20:30N 33°44' W 118°17'0 0.0
2017-Sep-14 20:00N 33°44' W 118°17'0 0.0
2017-Sep-14 19:30N 33°44' W 118°17'0 0.0
2017-Sep-14 19:00N 33°44' W 118°17'0 0.0
2017-Sep-14 18:30N 33°44' W 118°17'2 3.1
2017-Sep-14 18:00N 33°46' W 118°16'1 1.4
2017-Sep-14 17:30N 33°46' W 118°16'1 1.5
2017-Sep-14 17:00N 33°46' W 118°16'3 6.1
2017-Sep-14 16:30N 33°43' W 118°15'4 8.3
2017-Sep-14 16:00N 33°46' W 118°12'0 0.0
2017-Sep-14 04:54N 33°46' W 118°12'0 0.0
2017-Sep-14 04:30N 33°46' W 118°12'0 0.0
2017-Sep-14 04:00N 33°46' W 118°12'0 0.0
2017-Sep-14 03:30N 33°46' W 118°12'0 0.0
2017-Sep-14 03:00N 33°46' W 118°12'2 3.3
2017-Sep-14 02:30N 33°44' W 118°11'3 5.2
2017-Sep-14 02:00N 33°44' W 118°08'1 2.2
2017-Sep-14 01:30N 33°45' W 118°07'1 2.3
2017-Sep-14 01:00N 33°45' W 118°08'3 5.9
2017-Sep-14 00:30N 33°46' W 118°12'0 0.0
2017-Sep-14 00:00N 33°46' W 118°12'0 0.0
2017-Sep-13 23:30N 33°46' W 118°12'0 0.0
2017-Sep-13 23:00N 33°46' W 118°12'0 0.0
2017-Sep-13 22:30N 33°46' W 118°12'0 0.0
2017-Sep-13 22:00N 33°46' W 118°12'0 0.0
2017-Sep-13 21:30N 33°46' W 118°12'0 0.0
2017-Sep-13 21:00N 33°46' W 118°12'0 0.0
2017-Sep-13 20:30N 33°46' W 118°12'0 0.0
2017-Sep-13 20:00N 33°46' W 118°12'0 0.0
2017-Sep-13 19:30N 33°46' W 118°12'2 4.5
2017-Sep-13 19:00N 33°43' W 118°11'4 8.6
2017-Sep-13 18:30N 33°44' W 118°17'0 0.6
2017-Sep-13 18:00N 33°44' W 118°17'1 2.6
2017-Sep-13 17:30N 33°46' W 118°17'2 5.0
2017-Sep-13 17:00N 33°43' W 118°16'1 2.7
2017-Sep-13 16:30N 33°44' W 118°17'1 1.0
2017-Sep-13 15:59N 33°44' W 118°16'5 9.7
2017-Sep-13 15:30N 33°45' W 118°11'1 1.3
2017-Sep-13 15:00N 33°46' W 118°12'0 0.0
2017-Sep-13 03:54N 33°46' W 118°12'0 0.0
2017-Sep-13 03:30N 33°46' W 118°12'0 0.0
2017-Sep-13 03:00N 33°46' W 118°12'4 8.9
2017-Sep-13 02:30N 33°43' W 118°16'1 2.9
2017-Sep-13 02:01N 33°44' W 118°17'1 2.6
2017-Sep-13 01:30N 33°45' W 118°16'2 3.2
2017-Sep-13 01:01N 33°44' W 118°16'1 1.5
2017-Sep-13 00:31N 33°43' W 118°16'1 2.5
2017-Sep-13 00:00N 33°44' W 118°17'0 0.0
2017-Sep-12 23:31N 33°44' W 118°17'1 1.2
2017-Sep-12 23:01N 33°44' W 118°16'0 0.7
2017-Sep-12 22:31N 33°44' W 118°16'4 8.8
2017-Sep-12 22:01N 33°46' W 118°12'0 0.4
2017-Sep-12 21:30N 33°46' W 118°12'0 0.0
2017-Sep-12 21:00N 33°46' W 118°12'0 0.0
2017-Sep-12 20:31N 33°46' W 118°12'0 0.2
2017-Sep-12 20:00N 33°46' W 118°12'2 3.2
2017-Sep-12 19:30N 33°46' W 118°13'1 1.2
2017-Sep-12 19:00N 33°46' W 118°13'1 2.6
2017-Sep-12 18:30N 33°44' W 118°12'1 2.6
2017-Sep-12 18:00N 33°46' W 118°12'0 0.0
2017-Sep-11 20:02N 33°46' W 118°12'0 0.2
2017-Sep-11 20:00N 33°46' W 118°12'714.4
2017-Sep-11 19:31N 33°39' W 118°14'1121.3
2017-Sep-11 19:00N 33°32' W 118°24'715.0
2017-Sep-11 18:30N 33°28' W 118°32'0 0.1
2017-Sep-11 17:59N 33°28' W 118°32'917.1
2017-Sep-11 17:29N 33°34' W 118°24'817.9
2017-Sep-11 17:00N 33°39' W 118°16'714.7
2017-Sep-11 16:30N 33°45' W 118°11'1 1.2
2017-Sep-11 16:00N 33°46' W 118°12'0 0.0
2017-Sep-11 15:30N 33°46' W 118°12'0 0.0
2017-Sep-11 15:00N 33°46' W 118°12'0 0.0
2017-Sep-11 01:30N 33°46' W 118°12'4 8.0
2017-Sep-11 01:00N 33°42' W 118°10'815.0
2017-Sep-11 00:30N 33°41' W 118°19'2 5.0
2017-Sep-11 00:00N 33°40' W 118°22'510.2
2017-Sep-10 23:30N 33°41' W 118°16'510.3
2017-Sep-10 23:01N 33°44' W 118°11'2 3.8
2017-Sep-10 22:30N 33°46' W 118°12'510.2
2017-Sep-10 22:01N 33°41' W 118°09'918.0
2017-Sep-10 21:30N 33°34' W 118°02'4 7.2
2017-Sep-10 21:00N 33°31' W 118°00'918.2
2017-Sep-10 20:30N 33°27' W 118°10'816.7
2017-Sep-10 20:00N 33°35' W 118°11'917.3
2017-Sep-10 19:30N 33°44' W 118°11'2 4.0
2017-Sep-10 19:00N 33°46' W 118°12'0 0.0
2017-Sep-10 18:30N 33°46' W 118°12'0 0.0
2017-Sep-10 18:00N 33°46' W 118°12'0 0.0
2017-Sep-10 17:30N 33°46' W 118°12'0 0.8
2017-Sep-10 17:01N 33°45' W 118°11'4 9.0
2017-Sep-10 16:30N 33°44' W 118°17'0 0.2
2017-Sep-10 16:00N 33°44' W 118°16'4 8.5
2017-Sep-10 15:30N 33°46' W 118°12'0 0.0
2017-Sep-10 03:25N 33°46' W 118°12'0 0.0
2017-Sep-10 03:01N 33°46' W 118°12'0 0.0
2017-Sep-10 02:30N 33°46' W 118°12'0 0.0
2017-Sep-10 02:00N 33°46' W 118°12'5 9.6
2017-Sep-10 01:30N 33°41' W 118°10'918.1
2017-Sep-10 01:01N 33°35' W 118°01'  
Track history (hours):
 
Tides and Currents Weather Stations Pressure Air Temp Water Temp Dewpoint Dewpoint Depression Visibility Wind Speed Wind Dir Waves Ship Positions

La Espada

Owner: Harbor Breeze Cruises, Inc., Rancho Palos Verdes, CA. More information available from US FCC via Universal Licensing System and Coast Guard Vessel Documentation Center.

Last reported at 2017-Sep-20 00:38 UTC. Time now 2017-Sep-20 18:30 UTC.
Position N 33°46' W 118°12'.

Length 25 m.

MMSI: 367724740.

Date/timePositionNaut miles runAvg speedWind from/ knotsBaromVisibWave heightAir tempDewpointWater temp
2017-Sep-20 00:38N 33°46' W 118°12'0 0.0
2017-Sep-20 00:30N 33°46' W 118°12'0 0.0
2017-Sep-20 00:00N 33°46' W 118°12'0 0.0
2017-Sep-19 23:30N 33°46' W 118°12'2 4.4
2017-Sep-19 23:00N 33°44' W 118°11'4 8.0
2017-Sep-19 22:27N 33°45' W 118°17'2 3.4
2017-Sep-19 22:00N 33°46' W 118°16'3 5.7
2017-Sep-19 21:30N 33°43' W 118°16'3 5.8
2017-Sep-19 20:59N 33°46' W 118°16'0 0.0
2017-Sep-19 20:29N 33°46' W 118°16'0 0.8
2017-Sep-19 20:00N 33°46' W 118°16'1 3.0
2017-Sep-19 19:30N 33°44' W 118°17'1 2.9
2017-Sep-19 19:00N 33°46' W 118°16'1 3.0
2017-Sep-19 18:30N 33°44' W 118°17'0 0.0
2017-Sep-19 17:59N 33°44' W 118°17'0 0.0
2017-Sep-19 17:28N 33°44' W 118°17'3 6.0
2017-Sep-19 17:00N 33°43' W 118°14'3 6.3
2017-Sep-19 16:30N 33°46' W 118°12'0 0.0
2017-Sep-19 01:47N 33°46' W 118°12'0 0.0
2017-Sep-19 01:31N 33°46' W 118°12'0 0.0
2017-Sep-19 01:00N 33°46' W 118°12'0 0.0
2017-Sep-19 00:30N 33°46' W 118°12'0 0.0
2017-Sep-19 00:00N 33°46' W 118°12'1 1.4
2017-Sep-18 23:30N 33°45' W 118°11'4 8.9
2017-Sep-18 23:00N 33°43' W 118°16'2 4.7
2017-Sep-18 22:30N 33°45' W 118°16'2 3.9
2017-Sep-18 22:00N 33°46' W 118°14'2 4.1
2017-Sep-18 21:29N 33°44' W 118°13'1 3.1
2017-Sep-18 21:00N 33°46' W 118°12'3 5.7
2017-Sep-18 20:30N 33°43' W 118°13'3 5.5
2017-Sep-18 20:00N 33°44' W 118°17'0 0.0
2017-Sep-18 19:30N 33°44' W 118°17'4 8.4
2017-Sep-18 19:00N 33°44' W 118°11'2 3.9
2017-Sep-18 18:30N 33°46' W 118°12'0 0.0
2017-Sep-18 01:48N 33°46' W 118°12'1 4.4
2017-Sep-18 01:30N 33°45' W 118°11'713.5
2017-Sep-18 00:59N 33°42' W 118°19'714.3
2017-Sep-18 00:30N 33°45' W 118°26'916.4
2017-Sep-17 23:59N 33°39' W 118°18'4 8.2
2017-Sep-17 23:30N 33°38' W 118°14'714.1
2017-Sep-17 23:00N 33°44' W 118°11'2 2.7
2017-Sep-17 22:25N 33°46' W 118°12'0 1.1
2017-Sep-17 22:00N 33°45' W 118°11'917.1
2017-Sep-17 21:30N 33°37' W 118°09'713.9
2017-Sep-17 20:58N 33°30' W 118°04'3 6.2
2017-Sep-17 20:30N 33°33' W 118°06'5 8.7
2017-Sep-17 19:57N 33°36' W 118°10'817.4
2017-Sep-17 19:30N 33°44' W 118°11'2 3.8
2017-Sep-17 18:59N 33°46' W 118°12'0 0.0
2017-Sep-17 18:30N 33°46' W 118°12'4 7.9
2017-Sep-17 18:00N 33°42' W 118°11'8 3.1
2017-Sep-17 15:34N 33°35' W 118°16'618.2
2017-Sep-17 15:15N 33°40' W 118°13'518.1
2017-Sep-17 14:59N 33°45' W 118°11'1 0.1
2017-Sep-17 02:59N 33°46' W 118°12'0 0.0
2017-Sep-17 02:30N 33°46' W 118°12'0 0.0
2017-Sep-17 02:00N 33°46' W 118°12'3 5.8
2017-Sep-17 01:30N 33°43' W 118°11'1118.2
2017-Sep-17 00:54N 33°32' W 118°09'9 8.6
2017-Sep-16 23:52N 33°37' W 118°18'2 6.0
2017-Sep-16 23:30N 33°40' W 118°18'815.8
2017-Sep-16 23:00N 33°44' W 118°11'2 3.4
2017-Sep-16 22:30N 33°46' W 118°12'0 0.6
2017-Sep-16 22:01N 33°45' W 118°12'713.3
2017-Sep-16 21:30N 33°41' W 118°18'4 3.7
2017-Sep-16 20:30N 33°42' W 118°22'610.9
2017-Sep-16 19:55N 33°38' W 118°16'818.1
2017-Sep-16 19:31N 33°44' W 118°11'2 3.2
2017-Sep-16 19:00N 33°46' W 118°12'0 0.3
2017-Sep-16 18:30N 33°46' W 118°12'610.6
2017-Sep-16 17:58N 33°40' W 118°10'0 0.5
2017-Sep-16 17:30N 33°40' W 118°10'610.4
2017-Sep-16 16:59N 33°46' W 118°12'0 0.4
2017-Sep-16 16:30N 33°46' W 118°12'0 0.0
2017-Sep-15 22:49N 33°46' W 118°12'0 0.0
2017-Sep-15 22:30N 33°46' W 118°12'0 0.0
2017-Sep-15 22:00N 33°46' W 118°12'0 0.0
2017-Sep-15 21:30N 33°46' W 118°12'0 0.0
2017-Sep-15 21:00N 33°46' W 118°12'0 0.0
2017-Sep-15 20:30N 33°46' W 118°12'0 0.0
2017-Sep-15 20:00N 33°46' W 118°12'5 9.2
2017-Sep-15 19:30N 33°41' W 118°11'5 1.4
2017-Sep-15 15:40N 33°37' W 118°15'317.8
2017-Sep-15 15:30N 33°39' W 118°13'612.6
2017-Sep-15 14:59N 33°46' W 118°12'0 0.0
2017-Sep-15 14:30N 33°46' W 118°12'0 0.0
2017-Sep-15 14:01N 33°46' W 118°12'0 0.0
2017-Sep-15 02:46N 33°46' W 118°12'0 0.6
2017-Sep-15 02:29N 33°46' W 118°12'1 2.9
2017-Sep-15 01:59N 33°46' W 118°13'2 3.2
2017-Sep-15 01:30N 33°44' W 118°13'1 3.0
2017-Sep-15 01:00N 33°46' W 118°12'0 0.0
2017-Sep-15 00:30N 33°46' W 118°12'0 0.0
2017-Sep-15 00:00N 33°46' W 118°12'0 0.0
2017-Sep-14 23:30N 33°46' W 118°12'2 3.9
2017-Sep-14 23:00N 33°44' W 118°11'5 9.0
2017-Sep-14 22:30N 33°44' W 118°17'0 0.9
2017-Sep-14 22:00N 33°45' W 118°17'1 1.7
2017-Sep-14 21:29N 33°44' W 118°16'1 1.5
2017-Sep-14 21:00N 33°44' W 118°17'0 0.1
2017-Sep-14 20:30N 33°44' W 118°17'0 0.0
2017-Sep-14 20:00N 33°44' W 118°17'0 0.0
2017-Sep-14 19:30N 33°44' W 118°17'0 0.0
2017-Sep-14 19:00N 33°44' W 118°17'0 0.0
2017-Sep-14 18:30N 33°44' W 118°17'2 3.1
2017-Sep-14 18:00N 33°46' W 118°16'1 1.4
2017-Sep-14 17:30N 33°46' W 118°16'1 1.5
2017-Sep-14 17:00N 33°46' W 118°16'3 6.1
2017-Sep-14 16:30N 33°43' W 118°15'4 8.3
2017-Sep-14 16:00N 33°46' W 118°12'0 0.0
2017-Sep-14 04:54N 33°46' W 118°12'0 0.0
2017-Sep-14 04:30N 33°46' W 118°12'0 0.0
2017-Sep-14 04:00N 33°46' W 118°12'0 0.0
2017-Sep-14 03:30N 33°46' W 118°12'0 0.0
2017-Sep-14 03:00N 33°46' W 118°12'2 3.3
2017-Sep-14 02:30N 33°44' W 118°11'3 5.2
2017-Sep-14 02:00N 33°44' W 118°08'1 2.2
2017-Sep-14 01:30N 33°45' W 118°07'1 2.3
2017-Sep-14 01:00N 33°45' W 118°08'3 5.9
2017-Sep-14 00:30N 33°46' W 118°12'0 0.0
2017-Sep-14 00:00N 33°46' W 118°12'0 0.0
2017-Sep-13 23:30N 33°46' W 118°12'0 0.0
2017-Sep-13 23:00N 33°46' W 118°12'0 0.0
2017-Sep-13 22:30N 33°46' W 118°12'0 0.0
2017-Sep-13 22:00N 33°46' W 118°12'0 0.0
2017-Sep-13 21:30N 33°46' W 118°12'0 0.0
2017-Sep-13 21:00N 33°46' W 118°12'0 0.0
2017-Sep-13 20:30N 33°46' W 118°12'0 0.0
2017-Sep-13 20:00N 33°46' W 118°12'0 0.0
2017-Sep-13 19:30N 33°46' W 118°12'2 4.5
2017-Sep-13 19:00N 33°43' W 118°11'4 8.6
2017-Sep-13 18:30N 33°44' W 118°17'0 0.6
2017-Sep-13 18:00N 33°44' W 118°17'1 2.6
2017-Sep-13 17:30N 33°46' W 118°17'2 5.0
2017-Sep-13 17:00N 33°43' W 118°16'1 2.7
2017-Sep-13 16:30N 33°44' W 118°17'1 1.0
2017-Sep-13 15:59N 33°44' W 118°16'5 9.7
2017-Sep-13 15:30N 33°45' W 118°11'1 1.3
2017-Sep-13 15:00N 33°46' W 118°12'0 0.0
2017-Sep-13 03:54N 33°46' W 118°12'0 0.0
2017-Sep-13 03:30N 33°46' W 118°12'0 0.0
2017-Sep-13 03:00N 33°46' W 118°12'4 8.9
2017-Sep-13 02:30N 33°43' W 118°16'1 2.9
2017-Sep-13 02:01N 33°44' W 118°17'1 2.6
2017-Sep-13 01:30N 33°45' W 118°16'2 3.2
2017-Sep-13 01:01N 33°44' W 118°16'1 1.5
2017-Sep-13 00:31N 33°43' W 118°16'1 2.5
2017-Sep-13 00:00N 33°44' W 118°17'0 0.0
2017-Sep-12 23:31N 33°44' W 118°17'1 1.2
2017-Sep-12 23:01N 33°44' W 118°16'0 0.7
2017-Sep-12 22:31N 33°44' W 118°16'4 8.8
2017-Sep-12 22:01N 33°46' W 118°12'0 0.4
2017-Sep-12 21:30N 33°46' W 118°12'0 0.0
2017-Sep-12 21:00N 33°46' W 118°12'0 0.0
2017-Sep-12 20:31N 33°46' W 118°12'0 0.2
2017-Sep-12 20:00N 33°46' W 118°12'2 3.2
2017-Sep-12 19:30N 33°46' W 118°13'1 1.2
2017-Sep-12 19:00N 33°46' W 118°13'1 2.6
2017-Sep-12 18:30N 33°44' W 118°12'1 2.6
2017-Sep-12 18:00N 33°46' W 118°12'0 0.0
2017-Sep-11 20:02N 33°46' W 118°12'0 0.2
2017-Sep-11 20:00N 33°46' W 118°12'714.4
2017-Sep-11 19:31N 33°39' W 118°14'1121.3
2017-Sep-11 19:00N 33°32' W 118°24'715.0
2017-Sep-11 18:30N 33°28' W 118°32'0 0.1
2017-Sep-11 17:59N 33°28' W 118°32'917.1
2017-Sep-11 17:29N 33°34' W 118°24'817.9
2017-Sep-11 17:00N 33°39' W 118°16'714.7
2017-Sep-11 16:30N 33°45' W 118°11'1 1.2
2017-Sep-11 16:00N 33°46' W 118°12'0 0.0
2017-Sep-11 15:30N 33°46' W 118°12'0 0.0
2017-Sep-11 15:00N 33°46' W 118°12'0 0.0
2017-Sep-11 01:30N 33°46' W 118°12'4 8.0
2017-Sep-11 01:00N 33°42' W 118°10'815.0
2017-Sep-11 00:30N 33°41' W 118°19'2 5.0
2017-Sep-11 00:00N 33°40' W 118°22'510.2
2017-Sep-10 23:30N 33°41' W 118°16'510.3
2017-Sep-10 23:01N 33°44' W 118°11'2 3.8
2017-Sep-10 22:30N 33°46' W 118°12'510.2
2017-Sep-10 22:01N 33°41' W 118°09'918.0
2017-Sep-10 21:30N 33°34' W 118°02'4 7.2
2017-Sep-10 21:00N 33°31' W 118°00'918.2
2017-Sep-10 20:30N 33°27' W 118°10'816.7
2017-Sep-10 20:00N 33°35' W 118°11'917.3
2017-Sep-10 19:30N 33°44' W 118°11'2 4.0
2017-Sep-10 19:00N 33°46' W 118°12'0 0.0
2017-Sep-10 18:30N 33°46' W 118°12'0 0.0
2017-Sep-10 18:00N 33°46' W 118°12'0 0.0
2017-Sep-10 17:30N 33°46' W 118°12'0 0.8
2017-Sep-10 17:01N 33°45' W 118°11'4 9.0
2017-Sep-10 16:30N 33°44' W 118°17'0 0.2
2017-Sep-10 16:00N 33°44' W 118°16'4 8.5
2017-Sep-10 15:30N 33°46' W 118°12'0 0.0
2017-Sep-10 03:25N 33°46' W 118°12'0 0.0
2017-Sep-10 03:01N 33°46' W 118°12'0 0.0
2017-Sep-10 02:30N 33°46' W 118°12'0 0.0
2017-Sep-10 02:00N 33°46' W 118°12'5 9.6
2017-Sep-10 01:30N 33°41' W 118°10'918.1
2017-Sep-10 01:01N 33°35' W 118°01'  

Dump ship's entire track history